الصفحة الرئيسية
METAR-TAF:

METAR-TAF

مطار :

Antsiranana, مدغشقر

دائرة عرض: 12-21S, خط طول: 049-18E, ارتفاع: 114 متر

مراقبة الطقس الحالي

تاريخ ووقت الإصدار 11ساعات و 39 دقيقة قبل الساعة 15:00UTC
ريح 10 عقدة من الغرب/الشمال الغربي
درجة الحرارة 26°درجة مئوية
الرطوبة 70%
ضغط 1012 hPa
الرؤية 10 كم أو أكثر
غيوم قليلة على ارتفاع 2000 قدم

METAR: FMNA 181500Z 30010KT 9999 FEW020 26/20 Q1012

زمن: 05:39 (02:39 UTC)

توقعات

تاريخ ووقت الإصدار 3ساعات و 39 دقيقة قبل الساعة 23:00UTC
التوقعات صالحة من19 الساعة 00 UTC إلى 19 الساعة 24 UTC
ريح 4 عقدة من الجنوب الشرقي
الرؤية 10 كم أو أكثر
غيوم متفرقة على ارتفاع 2000 قدم
أصبح
من 19 الساعة 04 UTC إلى 19 الساعة 06 UTC
ريح 14 عقدة من الجنوب الشرقي
نظرية الاحتمالات 30% :
مؤقت
من 19 الساعة 05 UTC إلى 19 الساعة 12 UTC
الرؤية: 4500 متر
زخات من المطر

TAF: FMNA 182300Z 1900/1924 14004KT 9999 SCT020 BECMG 1904/1906 14014KT PROB30 TEMPO 1905/1912 4500 SHRA

أرصاد الطقس والتوقعات من أكثر من 4000 مطار (تقارير الطقس للمطار METAR والتنبؤ بالطقس بالمطارTAF).

المحطات المتاحة هي النقط الصفراء والحمراء على الخريطة.

حرك المؤشر فوق النقطة لمعرفة اسم المحطة.

ثم انقر لمعرفة أرصاد وتوقعات الطقس.

لتغيير الخارطة: اضغط على الأزرار الخضراء مع رمز الصليب الأسود للتكبير. على الزر الأخضر مع شرطة للتصغير، أو على الأسهم الخضراء للخرائط المجاورة.


METAR-TAF: